Time;durP1;ratioP1;P1;durP2;ratioP2;P2;SDS_P1;SDS_P2;PMS_P1;PMS_P2;Temp;Humidity;BMP_temperature;BMP_pressure;BME280_temperature;BME280_humidity;BME280_pressure;Samples;Min_cycle;Max_cycle;Signal;HPM_P1;HPM_P2
2022/01/12 00:02:11;;;;;;;422.70;401.20;;;4.00;99.90;;;;;;4437612;32;20154;-63
2022/01/12 00:04:38;;;;;;;426.90;404.57;;;4.10;99.90;;;;;;4433842;32;20531;-67
2022/01/12 00:07:07;;;;;;;436.17;413.63;;;4.10;99.90;;;;;;4438530;32;20498;-64
2022/01/12 00:09:36;;;;;;;424.17;402.77;;;4.10;99.90;;;;;;4438473;32;20158;-63
2022/01/12 00:12:07;;;;;;;417.23;395.47;;;4.20;99.90;;;;;;4438563;32;20218;-63
2022/01/12 00:14:37;;;;;;;423.60;401.60;;;4.10;99.90;;;;;;4436987;32;20179;-63
2022/01/12 00:17:04;;;;;;;418.33;397.10;;;4.20;99.90;;;;;;4423097;32;20173;-68
2022/01/12 00:19:31;;;;;;;431.30;408.63;;;4.20;99.90;;;;;;4423199;32;20189;-63
2022/01/12 00:21:58;;;;;;;450.50;427.30;;;4.10;99.90;;;;;;4423103;32;20159;-61
2022/01/12 00:24:41;;;;;;;449.63;426.10;;;4.20;99.90;;;;;;4423171;32;20511;-65
2022/01/12 00:35:32;;;;;;;392.33;372.30;;;4.10;99.90;;;;;;4387273;32;20238;-63
2022/01/12 00:38:04;;;;;;;417.63;396.03;;;4.10;99.90;;;;;;4387958;32;20519;-63
2022/01/12 00:40:33;;;;;;;457.07;433.23;;;4.10;99.90;;;;;;4389938;32;20238;-63
2022/01/12 00:43:07;;;;;;;443.87;420.63;;;4.10;99.90;;;;;;4390141;32;20191;-66
2022/01/12 00:45:35;;;;;;;433.47;410.93;;;4.10;99.90;;;;;;4389271;32;20153;-64
2022/01/12 00:48:07;;;;;;;425.30;403.43;;;4.10;99.90;;;;;;4389358;32;20588;-66
2022/01/12 00:50:34;;;;;;;424.20;401.90;;;4.10;99.90;;;;;;4390389;32;20144;-63
2022/01/12 00:53:07;;;;;;;422.37;399.70;;;4.10;99.90;;;;;;4390361;32;20187;-64
2022/01/12 00:55:36;;;;;;;437.33;414.03;;;4.00;99.90;;;;;;4390363;32;20178;-63
2022/01/12 00:58:09;;;;;;;432.47;410.03;;;4.10;99.90;;;;;;4389584;32;20492;-63
2022/01/12 01:00:36;;;;;;;429.77;407.33;;;4.10;99.90;;;;;;4390174;32;20195;-63
2022/01/12 01:03:04;;;;;;;440.87;417.87;;;4.10;99.90;;;;;;4390161;32;20156;-63
2022/01/12 01:05:33;;;;;;;468.87;443.70;;;4.10;99.90;;;;;;4389705;32;20148;-62
2022/01/12 01:08:00;;;;;;;442.70;419.47;;;4.20;99.90;;;;;;4419957;32;20210;-63
2022/01/12 01:10:38;;;;;;;456.93;432.60;;;4.30;99.90;;;;;;4424294;32;20509;-63
2022/01/12 01:13:12;;;;;;;434.77;412.17;;;4.20;99.90;;;;;;4422453;32;20553;-63
2022/01/12 01:15:56;;;;;;;434.47;412.53;;;4.20;99.90;;;;;;4422342;32;20201;-63
2022/01/12 01:26:49;;;;;;;447.47;424.10;;;4.40;99.90;;;;;;4423138;32;20590;-63
2022/01/12 01:29:19;;;;;;;429.43;407.07;;;4.30;99.90;;;;;;4422191;32;20168;-64
2022/01/12 01:31:48;;;;;;;434.07;411.23;;;4.20;99.90;;;;;;4423172;32;20140;-63
2022/01/12 01:34:18;;;;;;;450.03;426.50;;;4.20;99.90;;;;;;4422033;32;20155;-63
2022/01/12 01:36:51;;;;;;;433.87;410.80;;;4.20;99.90;;;;;;4421903;32;20173;-63
2022/01/12 01:39:21;;;;;;;425.23;402.63;;;4.20;99.90;;;;;;4421718;32;20171;-63
2022/01/12 01:41:55;;;;;;;444.13;421.00;;;4.20;99.90;;;;;;4421933;32;20473;-63
2022/01/12 01:55:27;;;;;;;417.57;395.10;;;4.10;99.90;;;;;;4436003;32;20208;-63
2022/01/12 01:57:58;;;;;;;439.47;416.00;;;4.10;99.90;;;;;;4422418;32;20177;-63
2022/01/12 02:00:28;;;;;;;437.80;414.13;;;4.10;99.90;;;;;;4421749;32;20502;-63
2022/01/12 02:03:00;;;;;;;489.10;462.77;;;4.00;99.90;;;;;;4421525;32;20212;-63
2022/01/12 02:05:34;;;;;;;464.30;439.60;;;4.10;99.90;;;;;;4433066;32;20148;-63
2022/01/12 02:08:04;;;;;;;460.17;434.97;;;4.10;99.90;;;;;;4434538;32;20166;-63
2022/01/12 02:10:31;;;;;;;464.40;438.90;;;4.10;99.90;;;;;;4438249;32;20244;-63
2022/01/12 02:13:02;;;;;;;464.70;438.73;;;4.20;99.90;;;;;;4436859;32;20178;-63
2022/01/12 02:15:30;;;;;;;456.50;431.40;;;4.20;99.90;;;;;;4436855;32;20169;-63
2022/01/12 02:18:11;;;;;;;473.33;447.43;;;4.10;99.90;;;;;;4427761;32;20171;-64
2022/01/12 02:40:09;;;;;;;464.77;439.43;;;4.30;99.90;;;;;;4403703;32;20187;-64
2022/01/12 02:42:41;;;;;;;476.30;450.10;;;4.40;99.90;;;;;;4404029;32;20555;-63
2022/01/12 02:50:45;;;;;;;462.40;437.20;;;4.50;99.90;;;;;;4404733;32;20167;-64
2022/01/12 02:56:03;;;;;;;473.63;448.10;;;4.50;99.90;;;;;;4404008;32;20154;-63
2022/01/12 02:58:30;;;;;;;478.10;452.10;;;4.50;99.90;;;;;;4403268;32;20630;-63
2022/01/12 03:03:50;;;;;;;466.40;440.97;;;4.60;99.90;;;;;;4420751;32;20187;-63
2022/01/12 03:06:34;;;;;;;465.30;440.33;;;4.60;99.90;;;;;;4436095;32;20183;-64
2022/01/12 03:09:05;;;;;;;475.10;448.63;;;4.60;99.90;;;;;;4422204;32;20167;-63
2022/01/12 03:11:32;;;;;;;488.87;462.33;;;4.60;99.90;;;;;;4420838;32;20181;-63
2022/01/12 03:14:00;;;;;;;481.43;455.80;;;4.60;99.90;;;;;;4420708;32;20161;-63
2022/01/12 03:16:29;;;;;;;494.67;468.03;;;4.60;99.90;;;;;;4420722;32;20148;-63
2022/01/12 03:18:58;;;;;;;480.67;454.60;;;4.60;99.90;;;;;;4421273;32;20183;-63
2022/01/12 03:21:29;;;;;;;466.13;441.07;;;4.60;99.90;;;;;;4421095;32;20249;-63
2022/01/12 03:23:58;;;;;;;501.30;474.23;;;4.60;99.90;;;;;;4435628;32;20166;-63
2022/01/12 03:26:29;;;;;;;475.60;449.67;;;4.60;99.90;;;;;;4436842;32;20181;-63
2022/01/12 03:29:07;;;;;;;486.97;460.23;;;4.60;99.90;;;;;;4436065;32;20159;-63
2022/01/12 03:31:35;;;;;;;495.70;468.93;;;4.60;99.90;;;;;;4436088;32;20143;-63
2022/01/12 03:34:08;;;;;;;491.67;464.53;;;4.70;99.90;;;;;;4434250;32;20186;-63
2022/01/12 03:37:15;;;;;;;457.60;433.30;;;4.60;99.90;;;;;;4436371;32;20203;-63
2022/01/12 03:39:41;;;;;;;466.03;440.83;;;4.70;99.90;;;;;;4428717;32;20182;-63
2022/01/12 03:42:11;;;;;;;475.03;449.07;;;4.60;99.90;;;;;;4426237;32;20162;-63
2022/01/12 03:44:39;;;;;;;498.50;471.27;;;4.70;99.90;;;;;;4436035;32;20150;-63
2022/01/12 03:47:06;;;;;;;495.40;468.30;;;4.70;99.90;;;;;;4436815;32;20642;-63
2022/01/12 03:49:38;;;;;;;484.70;458.13;;;4.70;99.90;;;;;;4435991;32;20198;-63
2022/01/12 03:52:05;;;;;;;491.47;464.80;;;4.60;99.90;;;;;;4434905;32;20163;-63
2022/01/12 03:54:32;;;;;;;484.47;458.23;;;4.70;99.90;;;;;;4435923;32;20215;-63
2022/01/12 03:57:00;;;;;;;510.43;482.13;;;4.60;99.90;;;;;;4435765;32;20479;-63
2022/01/12 03:59:37;;;;;;;511.93;483.83;;;4.70;99.90;;;;;;4434346;32;20203;-63
2022/01/12 04:02:07;;;;;;;496.27;468.80;;;4.70;99.90;;;;;;4435683;32;20147;-62
2022/01/12 04:05:05;;;;;;;477.40;450.83;;;4.60;99.90;;;;;;4432698;32;20147;-63
2022/01/12 04:10:12;;;;;;;468.73;442.73;;;4.60;99.90;;;;;;4422257;32;20206;-63
2022/01/12 04:12:43;;;;;;;489.50;461.73;;;4.60;99.90;;;;;;4436224;32;20194;-63
2022/01/12 04:15:17;;;;;;;490.80;463.13;;;4.60;99.90;;;;;;4435817;32;20474;-63
2022/01/12 04:17:46;;;;;;;470.83;443.57;;;4.60;99.90;;;;;;4435452;32;20419;-63
2022/01/12 04:20:16;;;;;;;493.20;465.20;;;4.60;99.90;;;;;;4438786;32;20159;-61
2022/01/12 04:25:35;;;;;;;511.13;481.40;;;4.60;99.90;;;;;;4438591;32;20162;-61
2022/01/12 04:28:01;;;;;;;497.03;468.33;;;4.60;99.90;;;;;;4438666;32;20187;-63
2022/01/12 04:30:30;;;;;;;495.63;467.13;;;4.80;99.90;;;;;;4437897;32;20147;-62
2022/01/12 04:32:56;;;;;;;484.03;457.57;;;4.70;99.90;;;;;;4439185;32;20139;-63
2022/01/12 04:35:31;;;;;;;500.23;471.57;;;4.70;99.90;;;;;;4438520;32;20213;-63
2022/01/12 04:38:13;;;;;;;480.37;453.40;;;4.70;99.90;;;;;;4438350;32;20477;-63
2022/01/12 04:40:47;;;;;;;473.23;446.33;;;4.70;99.90;;;;;;4434730;32;20210;-63
2022/01/12 04:43:19;;;;;;;483.10;455.90;;;4.80;99.90;;;;;;4423942;32;20208;-63
2022/01/12 04:46:09;;;;;;;487.27;459.37;;;4.80;99.90;;;;;;4431313;32;20230;-63
2022/01/12 04:48:51;;;;;;;483.47;454.43;;;4.70;99.90;;;;;;4422707;32;20159;-63
2022/01/12 04:51:21;;;;;;;489.00;461.40;;;4.70;99.90;;;;;;4423043;32;20156;-63
2022/01/12 04:53:48;;;;;;;482.83;455.27;;;4.70;99.90;;;;;;4423783;32;20159;-63
2022/01/12 04:56:15;;;;;;;507.07;477.57;;;4.70;99.90;;;;;;4421594;32;20155;-63
2022/01/12 04:58:48;;;;;;;504.40;475.40;;;4.80;99.90;;;;;;4423015;32;20181;-63
2022/01/12 05:01:23;;;;;;;483.80;456.20;;;4.70;99.90;;;;;;4422667;32;20219;-63
2022/01/12 05:06:56;;;;;;;476.73;449.40;;;4.70;99.90;;;;;;4438249;32;20176;-63
2022/01/12 05:09:50;;;;;;;465.47;438.57;;;4.80;99.90;;;;;;4438051;32;20158;-63
2022/01/12 05:15:18;;;;;;;473.13;446.07;;;4.60;99.90;;;;;;4422769;32;20157;-64
2022/01/12 05:17:52;;;;;;;471.43;443.33;;;4.60;99.90;;;;;;4423309;32;20157;-62
2022/01/12 05:20:21;;;;;;;478.33;450.13;;;4.50;99.90;;;;;;4422537;32;20143;-64
2022/01/12 05:22:49;;;;;;;509.97;480.00;;;4.50;99.90;;;;;;4423501;32;20155;-61
2022/01/12 05:25:18;;;;;;;485.47;456.83;;;4.50;99.90;;;;;;4423090;32;20159;-64
2022/01/12 05:27:47;;;;;;;496.63;467.63;;;4.50;99.90;;;;;;4422154;32;20144;-64
2022/01/12 05:30:15;;;;;;;509.50;479.47;;;4.50;99.90;;;;;;4427127;32;20586;-64
2022/01/12 05:32:43;;;;;;;511.63;482.30;;;4.50;99.90;;;;;;4423114;32;20290;-64
2022/01/12 05:35:16;;;;;;;536.33;505.47;;;4.60;99.90;;;;;;4425356;32;20147;-61
2022/01/12 05:37:45;;;;;;;518.20;487.53;;;4.60;99.90;;;;;;4428465;32;20626;-64
2022/01/12 05:40:13;;;;;;;531.87;500.77;;;4.60;99.90;;;;;;4423685;32;20470;-63
2022/01/12 05:42:40;;;;;;;513.07;482.10;;;4.70;99.90;;;;;;4421854;32;20167;-63
2022/01/12 05:45:09;;;;;;;545.90;513.50;;;4.70;99.90;;;;;;4422204;32;20522;-63
2022/01/12 05:49:33;;;;;;;525.27;493.93;;;4.70;99.90;;;;;;4421924;32;20144;-63
2022/01/12 05:50:29;;;;;;;503.23;472.97;;;4.70;99.90;;;;;;4427898;32;20174;-63
2022/01/12 05:52:56;;;;;;;508.27;478.57;;;4.70;99.90;;;;;;4422607;32;20205;-63
2022/01/12 05:55:23;;;;;;;521.50;491.57;;;4.70;99.90;;;;;;4413875;32;20622;-63
2022/01/12 05:57:50;;;;;;;535.87;504.17;;;4.70;99.90;;;;;;4428011;32;20202;-63
2022/01/12 06:00:19;;;;;;;535.13;503.23;;;4.70;99.90;;;;;;4423072;32;20518;-63
2022/01/12 06:02:46;;;;;;;524.93;493.67;;;4.70;99.90;;;;;;4422404;32;20144;-64
2022/01/12 06:05:19;;;;;;;522.00;491.03;;;4.60;99.90;;;;;;4425461;32;20203;-63
2022/01/12 06:07:51;;;;;;;517.80;487.30;;;4.70;99.90;;;;;;4434492;32;20193;-63
2022/01/12 06:10:22;;;;;;;536.43;504.60;;;4.70;99.90;;;;;;4436572;32;20136;-63
2022/01/12 06:12:49;;;;;;;524.53;494.03;;;4.70;99.90;;;;;;4435439;32;20212;-62
2022/01/12 06:15:18;;;;;;;524.17;493.17;;;4.70;99.90;;;;;;4425574;32;20174;-62
2022/01/12 06:17:47;;;;;;;526.40;495.20;;;4.70;99.90;;;;;;4427385;32;20223;-63
2022/01/12 06:20:14;;;;;;;523.50;492.60;;;4.70;99.90;;;;;;4425844;32;20205;-63
2022/01/12 06:23:03;;;;;;;503.30;474.10;;;4.70;99.90;;;;;;4426532;32;20167;-64
2022/01/12 06:25:33;;;;;;;462.87;436.17;;;4.70;99.90;;;;;;4425495;32;20156;-63
2022/01/12 06:28:20;;;;;;;494.43;465.37;;;4.70;99.90;;;;;;4427885;32;20151;-66
2022/01/12 06:33:35;;;;;;;495.87;468.07;;;4.70;99.90;;;;;;4427973;32;20204;-66
2022/01/12 06:36:01;;;;;;;533.50;502.80;;;4.70;99.90;;;;;;4429687;32;20470;-63
2022/01/12 06:38:30;;;;;;;522.10;490.03;;;4.70;99.90;;;;;;4425343;32;20175;-65
2022/01/12 06:40:56;;;;;;;526.93;497.30;;;4.80;99.90;;;;;;4426904;32;20185;-63
2022/01/12 06:43:23;;;;;;;540.87;505.87;;;4.70;99.90;;;;;;4423855;32;20240;-63
2022/01/12 06:45:54;;;;;;;532.43;493.37;;;4.60;99.90;;;;;;4424730;32;20200;-63
2022/01/12 06:48:21;;;;;;;517.13;480.40;;;4.50;99.90;;;;;;4427106;32;20170;-63
2022/01/12 06:50:48;;;;;;;524.90;492.77;;;4.40;99.90;;;;;;4427243;32;20219;-66
2022/01/12 06:53:26;;;;;;;518.97;488.37;;;4.40;99.90;;;;;;4429479;32;20936;-63
2022/01/12 06:55:54;;;;;;;517.47;487.00;;;4.50;99.90;;;;;;4427890;32;20195;-63
2022/01/12 06:58:21;;;;;;;556.87;523.50;;;4.50;99.90;;;;;;4426626;32;20171;-63
2022/01/12 07:00:48;;;;;;;533.67;500.83;;;4.50;99.90;;;;;;4429818;32;20147;-63
2022/01/12 07:03:15;;;;;;;547.23;513.37;;;4.60;99.90;;;;;;4425429;32;20155;-62
2022/01/12 07:05:42;;;;;;;536.20;503.60;;;4.50;99.90;;;;;;4424644;32;20454;-62
2022/01/12 07:08:09;;;;;;;548.40;515.60;;;4.50;99.90;;;;;;4427772;32;20447;-62
2022/01/12 07:10:36;;;;;;;547.07;514.60;;;4.60;99.90;;;;;;4426724;32;20486;-61
2022/01/12 07:13:04;;;;;;;544.07;511.27;;;4.70;99.90;;;;;;4437001;32;20191;-62
2022/01/12 07:15:31;;;;;;;542.80;509.37;;;4.60;99.90;;;;;;4436029;32;20204;-63
2022/01/12 07:18:03;;;;;;;544.07;510.93;;;4.60;99.90;;;;;;4435523;32;20149;-66
2022/01/12 07:20:32;;;;;;;560.13;525.97;;;4.50;99.90;;;;;;4436698;32;20587;-68
2022/01/12 07:22:59;;;;;;;557.17;523.03;;;4.60;99.90;;;;;;4436037;32;20143;-66
2022/01/12 07:25:26;;;;;;;543.37;510.17;;;4.60;99.90;;;;;;4437785;32;20159;-63
2022/01/12 07:27:53;;;;;;;553.63;520.23;;;4.60;99.90;;;;;;4436068;32;20155;-63
2022/01/12 07:30:22;;;;;;;563.77;528.77;;;4.60;99.90;;;;;;4436838;32;20170;-65
2022/01/12 07:32:50;;;;;;;555.17;520.37;;;4.60;99.90;;;;;;4436323;32;20555;-62
2022/01/12 07:35:17;;;;;;;565.07;530.63;;;4.60;99.90;;;;;;4436132;32;20155;-66
2022/01/12 07:37:43;;;;;;;595.33;558.57;;;4.60;99.90;;;;;;4435992;32;20146;-64
2022/01/12 07:40:13;;;;;;;579.73;544.07;;;4.70;99.90;;;;;;4436942;32;20567;-64
2022/01/12 07:42:40;;;;;;;573.40;538.93;;;4.70;99.90;;;;;;4435905;32;20175;-62
2022/01/12 07:45:07;;;;;;;569.70;535.33;;;4.80;99.90;;;;;;4436665;32;20205;-65
2022/01/12 07:47:35;;;;;;;573.87;539.57;;;4.80;99.90;;;;;;4436397;32;20603;-63
2022/01/12 07:50:09;;;;;;;562.07;526.90;;;4.70;99.90;;;;;;4435917;32;20514;-63
2022/01/12 07:52:36;;;;;;;548.70;515.13;;;4.80;99.90;;;;;;4435817;32;20548;-62
2022/01/12 07:55:05;;;;;;;549.83;515.70;;;4.80;99.90;;;;;;4439232;32;20194;-63
2022/01/12 07:57:31;;;;;;;553.33;518.97;;;4.70;99.90;;;;;;4439080;32;20183;-65
2022/01/12 07:59:58;;;;;;;559.20;527.17;;;4.80;99.90;;;;;;4438930;32;20198;-62
2022/01/12 08:02:25;;;;;;;563.87;532.23;;;4.80;99.90;;;;;;4440630;32;20221;-63
2022/01/12 08:04:54;;;;;;;556.20;523.07;;;4.80;99.90;;;;;;4438996;32;20195;-62
2022/01/12 08:07:21;;;;;;;558.47;526.37;;;4.90;99.90;;;;;;4438739;32;20147;-63
2022/01/12 08:09:51;;;;;;;575.27;541.33;;;4.90;99.90;;;;;;4438921;32;20161;-64
2022/01/12 08:12:21;;;;;;;551.70;520.43;;;4.90;99.90;;;;;;4438769;32;20588;-62
2022/01/12 08:14:55;;;;;;;531.37;500.53;;;4.90;99.90;;;;;;4438963;32;20178;-63
2022/01/12 08:17:22;;;;;;;534.60;502.83;;;4.90;99.90;;;;;;4438621;32;20532;-63
2022/01/12 08:20:10;;;;;;;551.33;518.37;;;4.70;99.90;;;;;;4438795;32;20143;-64
2022/01/12 08:22:39;;;;;;;553.17;521.07;;;4.80;99.90;;;;;;4439376;32;20158;-63
2022/01/12 08:25:09;;;;;;;548.73;516.03;;;4.80;99.90;;;;;;4438610;32;20216;-62
2022/01/12 08:27:35;;;;;;;565.70;532.00;;;4.90;99.90;;;;;;4438527;32;20175;-63
2022/01/12 08:30:06;;;;;;;577.53;544.17;;;5.00;99.90;;;;;;4439029;32;20554;-64
2022/01/12 08:32:35;;;;;;;550.10;517.57;;;5.00;99.90;;;;;;4438518;32;20147;-65
2022/01/12 08:35:02;;;;;;;518.80;488.00;;;4.90;99.90;;;;;;4438611;32;20146;-64
2022/01/12 08:37:31;;;;;;;545.00;512.63;;;4.80;99.90;;;;;;4438322;32;20139;-62
2022/01/12 08:39:59;;;;;;;560.27;527.67;;;4.80;99.90;;;;;;4438695;32;20206;-62
2022/01/12 08:42:26;;;;;;;575.70;542.27;;;5.00;99.90;;;;;;4438257;32;20178;-62
2022/01/12 08:44:59;;;;;;;571.50;538.57;;;5.00;99.90;;;;;;4438248;32;20162;-64
2022/01/12 08:47:26;;;;;;;567.03;534.30;;;5.00;99.90;;;;;;4439174;32;20177;-67
2022/01/12 08:49:53;;;;;;;551.60;520.97;;;5.10;99.90;;;;;;4438302;32;20143;-63
2022/01/12 08:52:20;;;;;;;538.83;508.80;;;5.10;99.90;;;;;;4438264;32;20135;-65
2022/01/12 08:54:46;;;;;;;541.97;511.30;;;5.00;99.90;;;;;;4438723;32;20185;-65
2022/01/12 08:57:17;;;;;;;555.53;523.80;;;5.10;99.90;;;;;;4437710;32;20208;-64
2022/01/12 08:59:44;;;;;;;548.13;517.50;;;5.00;99.90;;;;;;4438096;32;20139;-67
2022/01/12 09:02:16;;;;;;;564.90;533.17;;;5.10;99.90;;;;;;4438475;32;20186;-63
2022/01/12 09:04:43;;;;;;;545.47;515.73;;;5.20;99.90;;;;;;4437461;32;20162;-63
2022/01/12 09:07:10;;;;;;;551.70;521.43;;;5.20;99.90;;;;;;4437747;32;20166;-64
2022/01/12 09:09:38;;;;;;;542.20;512.00;;;5.20;99.90;;;;;;4437916;32;20559;-65
2022/01/12 09:12:09;;;;;;;538.20;508.67;;;5.20;99.90;;;;;;4437591;32;20166;-65
2022/01/12 09:14:37;;;;;;;544.20;515.20;;;5.20;99.90;;;;;;4437865;32;20567;-63
2022/01/12 09:17:12;;;;;;;541.40;512.20;;;5.30;99.90;;;;;;4437982;32;20139;-64
2022/01/12 09:19:42;;;;;;;534.17;504.77;;;5.20;99.90;;;;;;4437958;32;20150;-62
2022/01/12 09:22:09;;;;;;;539.83;510.70;;;5.30;99.90;;;;;;4438706;32;20171;-63
2022/01/12 09:24:37;;;;;;;545.17;515.33;;;5.40;99.90;;;;;;4437627;32;20215;-64
2022/01/12 09:27:05;;;;;;;521.20;492.80;;;5.30;99.90;;;;;;4438675;32;20167;-62
2022/01/12 09:29:34;;;;;;;515.57;488.57;;;5.20;99.90;;;;;;4437699;32;20150;-63
2022/01/12 09:32:08;;;;;;;505.00;478.73;;;5.10;99.90;;;;;;4437666;32;20140;-62
2022/01/12 09:34:37;;;;;;;516.43;488.63;;;5.10;99.90;;;;;;4437553;32;20149;-64
2022/01/12 09:37:06;;;;;;;517.87;490.60;;;5.20;99.90;;;;;;4437940;32;20139;-67
2022/01/12 09:39:39;;;;;;;532.27;503.70;;;5.40;99.90;;;;;;4437500;32;20173;-67
2022/01/12 09:42:06;;;;;;;520.90;492.83;;;5.50;99.90;;;;;;4437449;32;20182;-64
2022/01/12 09:44:37;;;;;;;520.60;492.77;;;5.70;99.90;;;;;;4438954;32;20544;-64
2022/01/12 09:47:07;;;;;;;515.63;489.00;;;5.80;99.90;;;;;;4430977;32;20167;-66
2022/01/12 09:49:37;;;;;;;530.33;502.90;;;5.80;99.90;;;;;;4421932;32;20573;-67
2022/01/12 09:52:06;;;;;;;517.87;491.47;;;5.90;99.90;;;;;;4422929;32;20162;-68
2022/01/12 09:54:33;;;;;;;512.83;486.20;;;6.10;99.90;;;;;;4421592;32;20144;-65
2022/01/12 09:57:00;;;;;;;505.53;479.10;;;6.30;99.90;;;;;;4421382;32;20151;-64
2022/01/12 09:59:28;;;;;;;536.03;507.87;;;6.40;99.90;;;;;;4421912;32;20540;-64
2022/01/12 10:01:56;;;;;;;508.33;482.03;;;6.40;99.90;;;;;;4421848;32;20143;-64
2022/01/12 10:04:27;;;;;;;507.00;480.10;;;6.50;99.90;;;;;;4421677;32;20158;-66
2022/01/12 10:06:58;;;;;;;513.43;486.27;;;6.50;99.90;;;;;;4421656;32;20144;-64
2022/01/12 10:09:32;;;;;;;521.17;494.00;;;6.50;99.90;;;;;;4422357;32;20161;-65
2022/01/12 10:12:05;;;;;;;510.17;483.50;;;6.60;99.90;;;;;;4421721;32;20184;-66
2022/01/12 10:14:42;;;;;;;495.87;470.67;;;6.50;99.90;;;;;;4421626;32;20212;-64
2022/01/12 10:17:11;;;;;;;504.23;477.47;;;6.50;99.90;;;;;;4422730;32;20132;-65
2022/01/12 10:19:45;;;;;;;511.20;485.10;;;6.50;99.90;;;;;;4421646;32;20157;-66
2022/01/12 10:22:15;;;;;;;508.50;483.10;;;6.40;99.90;;;;;;4421400;32;20147;-64
2022/01/12 10:24:47;;;;;;;513.83;487.87;;;6.60;99.90;;;;;;4421587;32;20151;-63
2022/01/12 10:27:16;;;;;;;514.83;488.00;;;6.60;99.90;;;;;;4421443;32;20197;-64
2022/01/12 10:29:44;;;;;;;522.57;495.17;;;6.60;99.90;;;;;;4421328;32;20185;-66
2022/01/12 10:32:13;;;;;;;517.33;490.93;;;6.50;99.90;;;;;;4421300;32;20162;-64
2022/01/12 10:34:43;;;;;;;488.70;463.63;;;6.50;99.90;;;;;;4422802;32;20156;-64
2022/01/12 10:37:13;;;;;;;496.47;470.57;;;6.20;99.90;;;;;;4426750;32;20175;-64
2022/01/12 10:39:45;;;;;;;491.87;466.73;;;6.20;99.90;;;;;;4428723;32;20163;-64
2022/01/12 10:42:14;;;;;;;500.10;474.80;;;6.20;99.90;;;;;;4428641;32;20215;-65
2022/01/12 10:44:57;;;;;;;500.27;474.23;;;6.40;99.90;;;;;;4421088;32;20148;-64
2022/01/12 10:47:29;;;;;;;479.13;454.80;;;6.60;99.90;;;;;;4421162;32;20140;-64
2022/01/12 10:50:10;;;;;;;510.50;484.30;;;6.80;99.90;;;;;;4421020;32;20174;-65
2022/01/12 10:52:39;;;;;;;476.60;452.37;;;7.00;99.90;;;;;;4420887;32;20514;-65
2022/01/12 10:55:12;;;;;;;505.47;479.60;;;7.10;99.90;;;;;;4432374;32;20254;-64
2022/01/12 10:57:41;;;;;;;502.93;477.07;;;7.20;99.90;;;;;;4430911;32;20776;-64
2022/01/12 11:00:18;;;;;;;520.97;494.00;;;7.20;99.90;;;;;;4435900;32;20548;-64
2022/01/12 11:02:49;;;;;;;496.73;470.83;;;7.10;99.90;;;;;;4437005;32;20155;-67
2022/01/12 11:05:21;;;;;;;512.20;486.10;;;6.90;99.90;;;;;;4440154;32;20611;-64
2022/01/12 11:07:48;;;;;;;505.40;479.67;;;6.90;99.90;;;;;;4441731;32;20606;-64
2022/01/12 11:10:16;;;;;;;511.63;485.13;;;6.90;99.90;;;;;;4437663;32;20177;-64
2022/01/12 11:12:43;;;;;;;537.77;510.00;;;7.10;99.90;;;;;;4437326;32;20189;-66
2022/01/12 11:15:12;;;;;;;521.17;494.03;;;7.40;99.90;;;;;;4442881;32;20674;-64
2022/01/12 11:17:40;;;;;;;509.40;483.60;;;7.40;99.90;;;;;;4439732;32;20163;-66
2022/01/12 11:20:16;;;;;;;534.83;506.63;;;7.30;99.90;;;;;;4443423;32;20528;-67
2022/01/12 11:22:56;;;;;;;522.10;495.30;;;7.20;99.90;;;;;;4435696;32;20549;-64
2022/01/12 11:25:30;;;;;;;510.73;484.23;;;7.30;99.90;;;;;;4431213;32;20468;-63
2022/01/12 11:28:11;;;;;;;512.27;485.93;;;7.40;99.90;;;;;;4434128;32;20155;-66
2022/01/12 11:30:39;;;;;;;503.53;477.83;;;7.50;99.90;;;;;;4428147;32;20238;-66
2022/01/12 11:33:09;;;;;;;527.13;499.93;;;7.50;99.90;;;;;;4431591;32;20498;-63
2022/01/12 11:35:40;;;;;;;510.73;484.13;;;7.40;99.90;;;;;;4432516;32;20207;-68
2022/01/12 11:38:19;;;;;;;514.97;488.63;;;7.20;99.90;;;;;;4429015;32;20262;-64
2022/01/12 11:40:47;;;;;;;517.03;490.47;;;7.10;99.90;;;;;;4427059;32;20500;-63
2022/01/12 11:43:19;;;;;;;514.90;488.03;;;7.30;99.90;;;;;;4425166;32;20169;-63
2022/01/12 11:45:47;;;;;;;530.63;503.33;;;7.30;99.90;;;;;;4429599;32;20218;-63
2022/01/12 11:48:14;;;;;;;517.57;490.83;;;7.30;99.90;;;;;;4421093;32;20170;-64
2022/01/12 11:50:53;;;;;;;515.20;488.93;;;7.10;99.90;;;;;;4424467;32;20487;-64
2022/01/12 11:53:22;;;;;;;485.73;461.10;;;7.00;99.90;;;;;;4421748;32;20147;-64
2022/01/12 11:55:53;;;;;;;491.70;467.40;;;6.90;99.90;;;;;;4419844;32;20634;-64
2022/01/12 11:58:22;;;;;;;490.03;464.67;;;6.80;99.90;;;;;;4419783;32;20219;-65
2022/01/12 12:00:52;;;;;;;504.80;479.47;;;6.90;99.90;;;;;;4431110;32;20150;-64
2022/01/12 12:03:20;;;;;;;521.80;494.67;;;7.00;99.90;;;;;;4434244;32;20203;-64
2022/01/12 12:05:55;;;;;;;533.50;505.43;;;7.10;99.90;;;;;;4420502;32;20228;-66
2022/01/12 12:08:26;;;;;;;525.67;498.07;;;7.40;99.90;;;;;;4427467;32;20212;-65
2022/01/12 12:10:55;;;;;;;496.37;471.47;;;7.50;99.90;;;;;;4422727;32;20156;-66
2022/01/12 12:13:23;;;;;;;495.23;470.50;;;7.60;99.90;;;;;;4420294;32;20147;-63
2022/01/12 12:15:51;;;;;;;515.50;489.50;;;7.70;99.90;;;;;;4424484;32;20155;-64
2022/01/12 12:18:18;;;;;;;500.17;473.93;;;7.60;99.90;;;;;;4435529;32;20238;-65
2022/01/12 12:20:49;;;;;;;527.00;499.97;;;7.60;99.90;;;;;;4428273;32;20166;-64
2022/01/12 12:23:22;;;;;;;513.03;486.70;;;7.60;99.90;;;;;;4420510;32;20178;-66
2022/01/12 12:25:50;;;;;;;497.70;472.03;;;7.60;99.90;;;;;;4420580;32;20171;-66
2022/01/12 12:28:17;;;;;;;510.87;484.97;;;7.50;99.90;;;;;;4421555;32;20262;-64
2022/01/12 12:30:44;;;;;;;540.43;513.37;;;7.70;99.90;;;;;;4420334;32;20211;-66
2022/01/12 12:33:13;;;;;;;536.47;508.90;;;7.70;99.90;;;;;;4433407;32;20181;-67
2022/01/12 12:35:44;;;;;;;518.80;492.60;;;7.60;99.90;;;;;;4435319;32;20170;-64
2022/01/12 12:38:14;;;;;;;492.70;467.63;;;7.30;99.90;;;;;;4435442;32;20203;-64
2022/01/12 12:40:45;;;;;;;508.57;483.10;;;7.20;99.90;;;;;;4433347;32;21879;-64
2022/01/12 12:43:19;;;;;;;531.63;504.33;;;7.20;99.90;;;;;;4425577;32;20196;-65
2022/01/12 12:45:48;;;;;;;563.63;534.40;;;7.30;99.90;;;;;;4423553;32;20170;-68
2022/01/12 12:48:17;;;;;;;541.17;512.50;;;7.40;99.90;;;;;;4422897;32;20173;-65
2022/01/12 12:50:48;;;;;;;519.80;493.23;;;7.50;99.90;;;;;;4432051;32;20159;-65
2022/01/12 12:53:15;;;;;;;551.97;522.83;;;7.50;99.90;;;;;;4449162;32;20226;-64
2022/01/12 12:55:46;;;;;;;536.43;507.83;;;7.50;99.90;;;;;;4441958;32;20179;-64
2022/01/12 12:58:25;;;;;;;530.70;503.40;;;7.30;99.90;;;;;;4384046;32;20631;-68
2022/01/12 13:00:52;;;;;;;531.10;502.97;;;7.30;99.90;;;;;;4373859;32;20674;-65
2022/01/12 13:03:19;;;;;;;537.97;510.13;;;7.20;99.90;;;;;;4377508;32;20156;-65
2022/01/12 13:05:49;;;;;;;558.37;528.97;;;7.10;99.90;;;;;;4380974;32;20171;-64
2022/01/12 13:08:17;;;;;;;551.97;522.97;;;7.20;99.90;;;;;;4381227;32;20148;-68
2022/01/12 13:10:45;;;;;;;554.43;525.10;;;7.20;99.90;;;;;;4381146;32;20242;-63
2022/01/12 13:13:15;;;;;;;554.77;524.87;;;7.20;99.90;;;;;;4383504;32;20219;-66
2022/01/12 13:15:45;;;;;;;535.40;507.60;;;7.30;99.90;;;;;;4380888;32;20215;-63
2022/01/12 13:18:15;;;;;;;543.70;515.10;;;7.30;99.90;;;;;;4380704;32;20199;-66
2022/01/12 13:23:39;;;;;;;530.00;502.43;;;7.30;99.90;;;;;;4376815;32;20171;-67
2022/01/12 13:26:07;;;;;;;526.73;498.87;;;7.40;99.90;;;;;;4382504;32;20561;-64
2022/01/12 13:28:40;;;;;;;501.07;474.83;;;7.40;99.90;;;;;;4386011;32;20173;-62
2022/01/12 13:31:12;;;;;;;535.13;506.63;;;7.40;99.90;;;;;;4377118;32;20508;-65
2022/01/12 13:33:43;;;;;;;526.70;499.07;;;7.50;99.90;;;;;;4383846;32;20196;-66
2022/01/12 13:36:14;;;;;;;547.93;518.33;;;7.50;99.90;;;;;;4380803;32;20618;-68
2022/01/12 13:38:42;;;;;;;538.13;508.93;;;7.50;99.90;;;;;;4385172;32;20169;-64
2022/01/12 13:41:15;;;;;;;528.10;500.43;;;7.40;99.90;;;;;;4377469;32;20171;-64
2022/01/12 13:43:49;;;;;;;536.60;507.90;;;7.30;99.90;;;;;;4376683;32;20172;-63
2022/01/12 13:46:20;;;;;;;552.47;523.20;;;7.30;99.90;;;;;;4376516;32;20223;-64
2022/01/12 13:49:05;;;;;;;540.87;512.70;;;7.30;99.90;;;;;;4382537;32;20203;-64
2022/01/12 13:51:37;;;;;;;536.27;507.13;;;7.20;99.90;;;;;;4391243;32;20155;-63